Estación Meteorológica Peña el Pijo (Robertgarden) [ 01/30/23 15:09:02 CET ]

Fecha Hora Presion(HPa) Temp (°C) Humedad % Rocio (°C) Viento ( m/s) Direccion Lluvia 1Hora(mm) Lluvia 24H(mm) LLuvia Total(mm)
2010-May-30 01:01:16 1018.100 10.2 79 6.7       0.51 114.99
2010-May-30 02:01:12 1017.900 10.6 78 6.9       0.51 114.99
2010-May-30 03:03:15 1017.800 9.9 79 6.4       0.51 114.99
2010-May-30 04:01:16 1017.400 9.5 80 6.2         114.99
2010-May-30 05:01:12 1017.500 9.5 81 6.4         114.99
2010-May-30 06:01:11 1017.400 9.2 83 6.4         114.99
2010-May-30 07:01:14 1018.000 9.1 84 6.5         114.99
2010-May-30 08:01:13 1018.400 11.3 83 8.5         114.99
2010-May-30 09:01:17 1018.500 16.4 67 10.3         114.99
2010-May-30 10:01:16 1018.500 22.2 51 11.6         114.99
2010-May-30 11:01:13 1018.600 24.1 42 10.4         114.99
2010-May-30 12:01:12 1018.600 27.6 36 11.1         114.99
2010-May-30 13:01:17 1018.400 30.5 30 11.0         114.99
2010-May-30 14:01:17 1018.300 29.4 29 9.5         114.99
2010-May-30 15:01:17 1018.000 28.1 29 8.3         114.99
2010-May-30 16:01:16 1017.500 28.8 30 9.5         114.99
2010-May-30 17:01:17 1017.300 27.9 30 8.7         114.99
2010-May-30 18:01:16 1017.200 28.3 29 8.5         114.99
2010-May-30 19:01:13 1016.900 28.3 28 7.9         114.99
2010-May-30 20:01:13 1017.100 27.6 31 8.9         114.99
2010-May-30 21:01:12 1017.500 22.8 40 8.5         114.99
2010-May-30 22:01:13 1017.900 18.4 53 8.6         114.99
2010-May-30 23:01:16 1018.700 15.3 66 9.0         114.99

Temperatura Máxima:30°    Temperatura Mínima:
Presión Máxima:1018.700 Hpa    Presión Mínima:1016.900 Hpa


Volver